createdAt,value
2024-04-15T00:00:49.358Z,66.05
2024-04-15T00:03:16.408Z,66.60
2024-04-15T00:05:48.545Z,66.31
2024-04-15T00:08:16.389Z,65.36
2024-04-15T00:10:46.340Z,65.91
2024-04-15T00:13:13.310Z,65.94
2024-04-15T00:15:45.578Z,66.83
2024-04-15T00:18:12.520Z,65.36
2024-04-15T00:20:42.034Z,64.12
2024-04-15T00:23:11.709Z,65.02
2024-04-15T00:25:41.212Z,64.35
2024-04-15T00:28:08.164Z,64.53
2024-04-15T00:30:37.796Z,65.21
2024-04-15T00:33:05.278Z,65.32
2024-04-15T00:35:34.873Z,65.91
2024-04-15T00:38:01.784Z,65.88
2024-04-15T00:40:34.184Z,65.23
2024-04-15T00:43:02.324Z,65.52
2024-04-15T00:45:34.706Z,65.33
2024-04-15T00:48:03.449Z,65.31
2024-04-15T00:50:34.619Z,65.65
2024-04-15T00:53:03.697Z,65.73
2024-04-15T00:55:38.287Z,65.64
2024-04-15T00:58:06.569Z,67.07
2024-04-15T01:00:36.741Z,66.87
2024-04-15T01:03:05.715Z,68.26
2024-04-15T01:05:35.987Z,68.52
2024-04-15T01:08:03.020Z,68.86
2024-04-15T01:10:50.618Z,69.12
2024-04-15T01:13:22.324Z,68.50
2024-04-15T01:15:58.635Z,68.79
2024-04-15T01:18:26.299Z,69.24
2024-04-15T01:20:58.661Z,68.92
2024-04-15T01:23:29.048Z,67.19
2024-04-15T01:26:01.160Z,67.09
2024-04-15T01:28:28.106Z,67.08
2024-04-15T01:30:59.094Z,66.46
2024-04-15T01:33:26.046Z,66.97
2024-04-15T01:35:55.541Z,66.93
2024-04-15T01:38:24.256Z,66.47
2024-04-15T01:40:53.782Z,68.47
2024-04-15T01:43:23.430Z,69.94
2024-04-15T01:45:53.204Z,70.38
2024-04-15T01:48:20.746Z,70.76
2024-04-15T01:50:50.315Z,70.31
2024-04-15T01:53:17.256Z,69.89
2024-04-15T01:55:47.330Z,69.71
2024-04-15T01:58:14.337Z,69.44
2024-04-15T02:00:46.658Z,68.52
2024-04-15T02:03:13.639Z,68.73
2024-04-15T02:05:43.155Z,69.19
2024-04-15T02:08:10.118Z,68.61
2024-04-15T02:10:39.603Z,68.35
2024-04-15T02:13:06.541Z,68.18
2024-04-15T02:15:36.112Z,68.10
2024-04-15T02:18:05.880Z,70.38
2024-04-15T02:20:35.524Z,70.72
2024-04-15T02:23:02.424Z,70.56
2024-04-15T02:25:31.921Z,70.41
2024-04-15T02:27:58.918Z,69.47
2024-04-15T02:30:28.443Z,69.97
2024-04-15T02:32:55.369Z,69.40
2024-04-15T02:35:27.500Z,69.26
2024-04-15T02:37:54.432Z,70.15
2024-04-15T02:40:24.006Z,70.98
2024-04-15T02:42:50.972Z,70.39
2024-04-15T02:45:20.480Z,71.36
2024-04-15T02:47:47.537Z,70.76
2024-04-15T02:50:17.218Z,69.78
2024-04-15T02:52:49.342Z,69.40
2024-04-15T02:55:16.612Z,69.63
2024-04-15T02:57:46.216Z,70.34
2024-04-15T03:00:13.381Z,70.84
2024-04-15T03:02:42.935Z,69.65
2024-04-15T03:05:09.885Z,70.71
2024-04-15T03:07:39.464Z,70.52
2024-04-15T03:10:11.908Z,70.46
2024-04-15T03:12:38.854Z,69.25
2024-04-15T03:15:08.915Z,69.19
2024-04-15T03:17:39.252Z,69.55
2024-04-15T03:20:09.784Z,69.77
2024-04-15T03:22:36.693Z,70.44
2024-04-15T03:25:06.435Z,70.22
2024-04-15T03:27:35.965Z,70.12
2024-04-15T03:30:05.618Z,70.01
2024-04-15T03:32:32.548Z,70.38
2024-04-15T03:35:02.098Z,69.76
2024-04-15T03:37:31.642Z,69.98
2024-04-15T03:40:01.458Z,69.74
2024-04-15T03:42:31.021Z,70.17
2024-04-15T03:45:03.207Z,70.71
2024-04-15T03:47:30.261Z,69.75
2024-04-15T03:49:59.830Z,69.50
2024-04-15T03:52:26.778Z,70.30
2024-04-15T03:54:56.278Z,69.80
2024-04-15T03:57:23.247Z,69.18
2024-04-15T03:59:52.759Z,69.34
2024-04-15T04:02:22.263Z,69.44
2024-04-15T04:04:51.919Z,69.28
2024-04-15T04:07:22.346Z,70.74
2024-04-15T04:09:51.910Z,70.22
2024-04-15T04:12:19.140Z,70.13
2024-04-15T04:14:48.685Z,69.45
2024-04-15T04:17:15.687Z,70.52
2024-04-15T04:19:49.567Z,70.56
2024-04-15T04:22:16.547Z,70.88
2024-04-15T04:24:46.256Z,70.17
2024-04-15T04:27:13.236Z,69.67
2024-04-15T04:29:42.890Z,69.89
2024-04-15T04:32:09.857Z,69.54
2024-04-15T04:34:39.339Z,71.69
2024-04-15T04:37:08.898Z,71.23
2024-04-15T04:39:38.428Z,70.89
2024-04-15T04:42:05.553Z,71.22
2024-04-15T04:44:35.112Z,71.59
2024-04-15T04:47:02.121Z,72.85
2024-04-15T04:49:31.619Z,72.30
2024-04-15T04:51:58.544Z,72.44
2024-04-15T04:54:30.675Z,73.24
2024-04-15T04:56:57.596Z,74.15
2024-04-15T04:59:27.705Z,74.16
2024-04-15T05:01:54.707Z,75.57
2024-04-15T05:04:24.497Z,75.54
2024-04-15T05:06:51.469Z,75.11
2024-04-15T05:09:21.199Z,76.37
2024-04-15T05:11:51.253Z,76.70
2024-04-15T05:14:20.837Z,76.00
2024-04-15T05:16:49.367Z,75.31
2024-04-15T05:19:18.993Z,75.30
2024-04-15T05:21:45.948Z,76.09
2024-04-15T05:24:15.747Z,75.87
2024-04-15T05:26:42.686Z,76.67
2024-04-15T05:29:14.837Z,76.80
2024-04-15T05:31:41.832Z,77.15
2024-04-15T05:34:11.490Z,78.65
2024-04-15T05:36:38.438Z,80.11
2024-04-15T05:39:07.966Z,76.96
2024-04-15T05:41:34.856Z,77.09
2024-04-15T05:44:04.533Z,78.17
2024-04-15T05:46:34.067Z,78.00
2024-04-15T05:49:03.652Z,79.34
2024-04-15T05:51:30.599Z,79.68
2024-04-15T05:54:00.292Z,80.21
2024-04-15T05:56:27.275Z,79.29
2024-04-15T05:58:56.746Z,79.91
2024-04-15T06:01:23.670Z,79.97
2024-04-15T06:03:56.036Z,80.55
2024-04-15T06:06:23.097Z,80.07
2024-04-15T06:08:52.607Z,79.04
2024-04-15T06:11:19.527Z,78.62
2024-04-15T06:13:49.039Z,78.48
2024-04-15T06:16:16.069Z,77.87
2024-04-15T06:18:45.734Z,78.41
2024-04-15T06:21:17.063Z,78.29
2024-04-15T06:23:46.927Z,78.74
2024-04-15T06:26:14.320Z,78.56
2024-04-15T06:28:43.821Z,79.65
2024-04-15T06:31:11.286Z,79.87
2024-04-15T06:33:40.783Z,79.44
2024-04-15T06:36:07.923Z,79.34
2024-04-15T06:38:40.087Z,79.66
2024-04-15T06:41:07.012Z,78.70
2024-04-15T06:43:36.956Z,77.08
2024-04-15T06:46:04.214Z,78.89
2024-04-15T06:48:33.827Z,76.75
2024-04-15T06:51:00.753Z,78.06
2024-04-15T06:53:30.287Z,76.40
2024-04-15T06:56:00.006Z,75.09
2024-04-15T06:58:30.180Z,75.41
2024-04-15T07:00:57.982Z,74.90
2024-04-15T07:03:27.642Z,75.08
2024-04-15T07:05:54.662Z,74.36
2024-04-15T07:08:24.170Z,74.78
2024-04-15T07:10:52.862Z,71.96
2024-04-15T07:13:26.029Z,73.63
2024-04-15T07:15:53.101Z,73.50
2024-04-15T07:18:22.648Z,74.63
2024-04-15T07:20:49.583Z,74.58
2024-04-15T07:23:21.595Z,70.60
2024-04-15T07:25:56.512Z,71.15
2024-04-15T07:28:29.048Z,70.79
2024-04-15T07:30:56.989Z,69.59
2024-04-15T07:33:27.312Z,67.57
2024-04-15T07:35:54.962Z,68.29
2024-04-15T07:38:24.625Z,68.22
2024-04-15T07:40:53.014Z,66.81
2024-04-15T07:43:22.596Z,66.30
2024-04-15T07:45:52.196Z,64.52
2024-04-15T07:48:21.735Z,65.07
2024-04-15T07:50:48.651Z,64.04
2024-04-15T07:53:18.143Z,63.67
2024-04-15T07:55:45.401Z,62.30
2024-04-15T07:58:15.075Z,60.38
2024-04-15T08:00:42.006Z,59.03
2024-04-15T08:03:14.230Z,59.62
2024-04-15T08:05:41.421Z,61.42
2024-04-15T08:08:11.831Z,60.22
2024-04-15T08:10:38.844Z,61.42
2024-04-15T08:13:08.390Z,61.43
2024-04-15T08:15:35.365Z,61.43
2024-04-15T08:18:05.008Z,61.06
2024-04-15T08:20:34.569Z,60.39
2024-04-15T08:23:04.090Z,62.33
2024-04-15T08:25:31.046Z,60.65
2024-04-15T08:28:00.583Z,60.96
2024-04-15T08:30:27.560Z,60.32
2024-04-15T08:32:57.313Z,60.86
2024-04-15T08:35:24.319Z,60.85
2024-04-15T08:37:56.467Z,62.05
2024-04-15T08:40:23.437Z,60.57
2024-04-15T08:42:54.943Z,60.33
2024-04-15T08:45:24.575Z,59.04
2024-04-15T08:47:55.383Z,59.29
2024-04-15T08:50:23.259Z,60.34
2024-04-15T08:52:53.357Z,56.67
2024-04-15T08:55:24.204Z,55.07
2024-04-15T08:57:56.030Z,55.23
2024-04-15T09:00:23.494Z,56.96
2024-04-15T09:02:57.832Z,53.82
2024-04-15T09:05:25.016Z,56.33
2024-04-15T09:07:54.665Z,56.54
2024-04-15T09:10:24.414Z,58.08
2024-04-15T09:12:54.070Z,56.95
2024-04-15T09:15:22.196Z,57.10
2024-04-15T09:17:52.242Z,57.29
2024-04-15T09:20:29.818Z,57.15
2024-04-15T09:23:13.123Z,56.89
2024-04-15T09:25:42.684Z,56.91
2024-04-15T09:28:12.275Z,58.20
2024-04-15T09:30:39.207Z,57.75
2024-04-15T09:33:12.428Z,59.39
2024-04-15T09:35:39.572Z,57.27
2024-04-15T09:38:12.735Z,55.30
2024-04-15T09:40:43.313Z,55.68
2024-04-15T09:43:14.032Z,54.36
2024-04-15T09:45:41.028Z,56.60
2024-04-15T09:48:18.376Z,54.98
2024-04-15T09:50:49.820Z,55.38
2024-04-15T09:53:27.110Z,55.26
2024-04-15T09:56:03.656Z,54.33
2024-04-15T09:58:37.058Z,57.08
2024-04-15T10:01:07.001Z,56.05
2024-04-15T10:03:38.950Z,53.50
2024-04-15T10:06:07.830Z,53.62
2024-04-15T10:08:41.682Z,54.54
2024-04-15T10:11:12.695Z,56.06
2024-04-15T10:13:42.804Z,54.56
2024-04-15T10:16:31.070Z,56.89
2024-04-15T10:19:14.157Z,54.02
2024-04-15T10:21:43.484Z,56.16
2024-04-15T10:24:15.262Z,54.21
2024-04-15T10:26:47.203Z,55.29
2024-04-15T10:29:21.222Z,55.67
2024-04-15T10:31:52.060Z,53.00
2024-04-15T10:34:24.423Z,51.36
2024-04-15T10:36:51.802Z,52.18
2024-04-15T10:39:23.173Z,52.45
2024-04-15T10:41:53.445Z,52.62
2024-04-15T10:44:23.774Z,50.92
2024-04-15T10:46:50.702Z,51.64
2024-04-15T10:49:20.801Z,50.05
2024-04-15T10:51:47.917Z,50.00
2024-04-15T10:54:17.534Z,50.11
2024-04-15T10:56:47.174Z,49.83
2024-04-15T10:59:17.753Z,49.68
2024-04-15T11:01:47.927Z,49.14
2024-04-15T11:04:15.310Z,51.21
2024-04-15T11:06:45.104Z,49.53
2024-04-15T11:09:12.354Z,49.70
2024-04-15T11:11:42.059Z,50.88
2024-04-15T11:14:11.651Z,50.63
2024-04-15T11:16:49.492Z,47.86
2024-04-15T11:19:17.905Z,47.79
2024-04-15T11:21:48.824Z,48.90
2024-04-15T11:24:17.417Z,48.19
2024-04-15T11:26:50.091Z,48.00
2024-04-15T11:29:19.260Z,46.30
2024-04-15T11:31:51.511Z,48.31
2024-04-15T11:34:19.639Z,45.65
2024-04-15T11:36:49.680Z,46.79
2024-04-15T11:39:17.200Z,46.71
2024-04-15T11:41:47.750Z,44.37
2024-04-15T11:44:15.045Z,45.46
2024-04-15T11:46:44.982Z,46.02
2024-04-15T11:49:14.684Z,45.32
2024-04-15T11:51:46.765Z,45.68
2024-04-15T11:54:13.703Z,43.65
2024-04-15T11:56:43.543Z,44.08
2024-04-15T11:59:10.924Z,43.27
2024-04-15T12:01:40.508Z,41.97
2024-04-15T12:04:07.573Z,41.56
2024-04-15T12:06:39.853Z,42.72
2024-04-15T12:09:06.822Z,43.37
2024-04-15T12:11:36.415Z,41.35
2024-04-15T12:14:03.360Z,40.38
2024-04-15T12:16:32.921Z,39.01
2024-04-15T12:18:59.912Z,41.38
2024-04-15T12:21:31.696Z,38.69
2024-04-15T12:24:02.407Z,37.70
2024-04-15T12:26:32.988Z,39.13
2024-04-15T12:28:59.921Z,39.14
2024-04-15T12:31:29.485Z,36.75
2024-04-15T12:33:57.250Z,39.06
2024-04-15T12:36:26.845Z,38.42
2024-04-15T12:38:54.572Z,39.89
2024-04-15T12:41:26.711Z,37.92
2024-04-15T12:43:56.027Z,40.28
2024-04-15T12:46:26.129Z,36.53
2024-04-15T12:48:54.682Z,37.90
2024-04-15T12:51:24.204Z,37.48
2024-04-15T12:53:51.188Z,35.88
2024-04-15T12:56:20.905Z,38.93
2024-04-15T12:58:50.604Z,37.64
2024-04-15T13:01:20.249Z,39.08
2024-04-15T13:03:47.241Z,37.65
2024-04-15T13:06:17.072Z,36.35
2024-04-15T13:08:44.018Z,37.45
2024-04-15T13:11:13.678Z,38.54
2024-04-15T13:13:40.662Z,38.53
2024-04-15T13:16:12.856Z,37.64
2024-04-15T13:18:39.946Z,39.33
2024-04-15T13:21:13.101Z,38.97
2024-04-15T13:23:40.081Z,37.94
2024-04-15T13:26:09.578Z,38.51
2024-04-15T13:28:36.479Z,38.69
2024-04-15T13:31:06.586Z,38.34
2024-04-15T13:33:36.959Z,38.00
2024-04-15T13:36:07.887Z,39.62
2024-04-15T13:38:35.080Z,38.29
2024-04-15T13:41:04.773Z,40.00
2024-04-15T13:43:31.707Z,37.64
2024-04-15T13:46:04.814Z,37.67
2024-04-15T13:48:32.721Z,37.33
2024-04-15T13:51:05.249Z,36.04
2024-04-15T13:53:33.472Z,35.43
2024-04-15T13:56:03.078Z,36.67
2024-04-15T13:58:30.353Z,37.72
2024-04-15T14:01:00.311Z,37.54
2024-04-15T14:03:27.528Z,37.20
2024-04-15T14:05:57.182Z,37.29
2024-04-15T14:08:26.859Z,37.67
2024-04-15T14:10:57.106Z,38.27
2024-04-15T14:13:24.428Z,36.70
2024-04-15T14:15:54.137Z,34.94
2024-04-15T14:18:21.139Z,34.77
2024-04-15T14:20:50.747Z,33.38
2024-04-15T14:23:17.691Z,35.48
2024-04-15T14:25:49.884Z,34.71
2024-04-15T14:28:16.859Z,35.53
2024-04-15T14:30:46.430Z,36.05
2024-04-15T14:33:13.447Z,36.93
2024-04-15T14:35:43.095Z,37.11
2024-04-15T14:38:11.299Z,37.86
2024-04-15T14:40:41.162Z,38.09
2024-04-15T14:43:10.810Z,38.32
2024-04-15T14:45:40.370Z,38.73
2024-04-15T14:48:08.320Z,40.36
2024-04-15T14:50:40.793Z,39.91
2024-04-15T14:53:07.714Z,39.48
2024-04-15T14:55:37.606Z,38.84
2024-04-15T14:58:04.972Z,38.56
2024-04-15T15:00:37.174Z,40.32
2024-04-15T15:03:04.603Z,40.26
2024-04-15T15:05:34.267Z,40.60
2024-04-15T15:08:01.355Z,40.01
2024-04-15T15:10:30.966Z,40.78
2024-04-15T15:12:58.522Z,40.90
2024-04-15T15:15:28.056Z,40.34
2024-04-15T15:17:57.722Z,41.32
2024-04-15T15:20:27.607Z,41.26
2024-04-15T15:22:54.835Z,41.33
2024-04-15T15:25:25.349Z,41.49
2024-04-15T15:27:52.901Z,42.41
2024-04-15T15:30:23.701Z,42.15
2024-04-15T15:32:50.822Z,43.08
2024-04-15T15:35:23.120Z,43.07
2024-04-15T15:37:50.101Z,43.06
2024-04-15T15:40:19.789Z,43.12
2024-04-15T15:42:46.716Z,43.36
2024-04-15T15:45:17.155Z,43.87
2024-04-15T15:47:44.247Z,44.41
2024-04-15T15:50:14.015Z,44.54
2024-04-15T15:52:43.571Z,44.13
2024-04-15T15:55:13.427Z,45.25
2024-04-15T15:57:40.491Z,45.47
2024-04-15T16:00:12.095Z,45.26
2024-04-15T16:02:48.272Z,47.27
2024-04-15T16:05:20.185Z,47.34
2024-04-15T16:07:50.279Z,46.94
2024-04-15T16:10:20.047Z,47.04
2024-04-15T16:12:47.055Z,47.17
2024-04-15T16:15:16.767Z,48.17
2024-04-15T16:17:43.842Z,47.85
2024-04-15T16:20:14.362Z,47.95
2024-04-15T16:22:41.601Z,47.81
2024-04-15T16:25:13.923Z,48.33
2024-04-15T16:27:40.926Z,49.15
2024-04-15T16:30:11.426Z,48.54
2024-04-15T16:32:39.357Z,49.81
2024-04-15T16:35:09.631Z,50.34
2024-04-15T16:37:37.122Z,52.99
2024-04-15T16:40:07.591Z,61.23
2024-04-15T16:42:37.177Z,67.61
2024-04-15T16:45:07.458Z,73.48
2024-04-15T16:47:34.719Z,72.35
2024-04-15T16:50:04.370Z,76.26
2024-04-15T16:52:31.371Z,76.45
2024-04-15T16:55:01.004Z,77.53
2024-04-15T16:57:28.996Z,76.89
2024-04-15T17:00:01.165Z,79.15
2024-04-15T17:02:28.206Z,77.77
2024-04-15T17:04:57.735Z,78.70
2024-04-15T17:07:27.260Z,79.66
2024-04-15T17:09:58.009Z,80.34
2024-04-15T17:12:25.521Z,80.65
2024-04-15T17:14:55.175Z,80.92
2024-04-15T17:17:24.949Z,80.69
2024-04-15T17:19:55.291Z,80.79
2024-04-15T17:22:22.291Z,81.72
2024-04-15T17:24:51.995Z,80.39
2024-04-15T17:27:19.273Z,79.97
2024-04-15T17:29:50.220Z,80.84
2024-04-15T17:32:17.423Z,81.09
2024-04-15T17:34:49.610Z,81.11
2024-04-15T17:37:16.605Z,82.23
2024-04-15T17:39:50.082Z,82.36
2024-04-15T17:42:17.311Z,81.85
2024-04-15T17:44:49.763Z,82.81
2024-04-15T17:47:16.945Z,83.84
2024-04-15T17:49:49.319Z,83.41
2024-04-15T17:52:16.395Z,83.16
2024-04-15T17:54:47.097Z,82.92
2024-04-15T17:57:14.097Z,83.34
2024-04-15T17:59:43.915Z,82.72
2024-04-15T18:02:10.980Z,82.37
2024-04-15T18:04:40.663Z,83.10
2024-04-15T18:07:11.085Z,84.80
2024-04-15T18:09:40.776Z,84.53
2024-04-15T18:12:08.848Z,84.38
2024-04-15T18:14:38.563Z,83.44
2024-04-15T18:17:05.733Z,83.36
2024-04-15T18:19:35.401Z,83.39
2024-04-15T18:22:02.381Z,82.78
2024-04-15T18:24:34.968Z,82.05
2024-04-15T18:27:01.937Z,82.14
2024-04-15T18:29:31.434Z,82.98
2024-04-15T18:31:58.438Z,83.96
2024-04-15T18:34:28.861Z,83.14
2024-04-15T18:36:56.041Z,82.47
2024-04-15T18:39:25.569Z,82.91
2024-04-15T18:41:55.100Z,82.83
2024-04-15T18:44:24.656Z,83.04
2024-04-15T18:46:51.720Z,82.92
2024-04-15T18:49:21.808Z,83.95
2024-04-15T18:51:48.875Z,82.80
2024-04-15T18:54:18.383Z,84.34
2024-04-15T18:56:45.579Z,82.68
2024-04-15T18:59:17.781Z,82.75
2024-04-15T19:01:44.776Z,83.16
2024-04-15T19:04:14.403Z,83.50
2024-04-15T19:06:44.167Z,84.42
2024-04-15T19:09:13.683Z,84.24
2024-04-15T19:11:40.678Z,83.87
2024-04-15T19:14:10.471Z,84.54
2024-04-15T19:16:40.035Z,84.27
2024-04-15T19:19:09.546Z,83.90
2024-04-15T19:21:36.505Z,84.53
2024-04-15T19:24:06.302Z,84.46
2024-04-15T19:26:37.132Z,85.25
2024-04-15T19:29:07.029Z,84.42
2024-04-15T19:31:34.991Z,84.48
2024-04-15T19:34:07.253Z,84.10
2024-04-15T19:36:34.364Z,84.16
2024-04-15T19:39:03.868Z,84.47
2024-04-15T19:41:34.312Z,83.89
2024-04-15T19:44:03.826Z,83.84
2024-04-15T19:46:31.138Z,85.01
2024-04-15T19:49:00.719Z,84.86
2024-04-15T19:51:30.264Z,84.67
2024-04-15T19:53:59.805Z,84.37
2024-04-15T19:56:26.838Z,84.35
2024-04-15T19:58:57.729Z,83.77
2024-04-15T20:01:24.778Z,83.62
2024-04-15T20:03:54.362Z,83.93
2024-04-15T20:06:21.404Z,84.01
2024-04-15T20:08:53.784Z,83.27
2024-04-15T20:11:21.108Z,83.51
2024-04-15T20:13:50.654Z,83.61
2024-04-15T20:16:17.680Z,83.27
2024-04-15T20:18:54.838Z,84.00
2024-04-15T20:21:21.884Z,84.76
2024-04-15T20:23:53.998Z,83.87
2024-04-15T20:26:20.966Z,83.74
2024-04-15T20:28:50.620Z,84.06
2024-04-15T20:31:17.595Z,83.85
2024-04-15T20:33:47.174Z,83.55
2024-04-15T20:36:14.109Z,83.59
2024-04-15T20:38:44.849Z,83.02
2024-04-15T20:41:14.662Z,84.09
2024-04-15T20:43:44.382Z,83.90
2024-04-15T20:46:11.836Z,84.60
2024-04-15T20:48:41.500Z,84.87
2024-04-15T20:51:08.495Z,84.45
2024-04-15T20:53:37.999Z,84.61
2024-04-15T20:56:55.593Z,84.79
2024-04-15T20:59:27.746Z,84.77
2024-04-15T21:01:54.734Z,84.49
2024-04-15T21:04:25.339Z,84.25
2024-04-15T21:06:53.546Z,84.35
2024-04-15T21:09:23.170Z,84.96
2024-04-15T21:11:50.076Z,85.78
2024-04-15T21:14:19.610Z,86.38
2024-04-15T21:16:49.302Z,84.97
2024-04-15T21:19:18.878Z,84.90
2024-04-15T21:21:45.826Z,84.96
2024-04-15T21:24:15.588Z,84.19
2024-04-15T21:26:42.649Z,84.05
2024-04-15T21:29:12.178Z,84.01
2024-04-15T21:31:39.157Z,83.88
2024-04-15T21:34:11.371Z,83.96
2024-04-15T21:36:38.279Z,83.58
2024-04-15T21:39:07.817Z,83.31
2024-04-15T21:41:34.733Z,83.80
2024-04-15T21:44:04.834Z,83.57
2024-04-15T21:46:31.837Z,83.48
2024-04-15T21:49:01.431Z,84.41
2024-04-15T21:51:31.085Z,83.94
2024-04-15T21:54:00.602Z,84.21
2024-04-15T21:56:27.764Z,84.25
2024-04-15T21:58:57.285Z,83.98
2024-04-15T22:01:24.313Z,84.35
2024-04-15T22:03:56.007Z,84.48
2024-04-15T22:06:23.640Z,84.45
2024-04-15T22:08:55.789Z,85.36
2024-04-15T22:11:22.775Z,85.22
2024-04-15T22:13:52.292Z,84.96
2024-04-15T22:16:19.351Z,84.65
2024-04-15T22:18:48.988Z,84.80
2024-04-15T22:21:15.886Z,84.31
2024-04-15T22:23:45.386Z,84.35
2024-04-15T22:26:16.110Z,84.62
2024-04-15T22:28:45.661Z,84.74
2024-04-15T22:31:15.226Z,84.48
2024-04-15T22:33:42.182Z,83.94
2024-04-15T22:36:11.791Z,83.81
2024-04-15T22:38:38.684Z,84.27
2024-04-15T22:41:08.215Z,84.31
2024-04-15T22:43:37.750Z,83.80
2024-04-15T22:46:07.604Z,85.06
2024-04-15T22:48:34.631Z,85.45
2024-04-15T22:51:05.051Z,84.96
2024-04-15T22:53:31.950Z,84.70
2024-04-15T22:56:01.621Z,84.25
2024-04-15T22:58:28.584Z,84.59
2024-04-15T23:01:00.870Z,84.10
2024-04-15T23:03:27.868Z,84.00
2024-04-15T23:05:57.423Z,83.71
2024-04-15T23:08:24.343Z,83.57
2024-04-15T23:10:54.880Z,83.71
2024-04-15T23:13:22.019Z,83.94
2024-04-15T23:15:51.578Z,82.91
2024-04-15T23:18:21.301Z,83.18
2024-04-15T23:20:50.883Z,83.49
2024-04-15T23:23:18.419Z,83.60
2024-04-15T23:25:48.162Z,83.04
2024-04-15T23:28:15.423Z,83.64
2024-04-15T23:30:45.648Z,83.09
2024-04-15T23:33:12.702Z,81.95
2024-04-15T23:35:44.809Z,81.66
2024-04-15T23:38:11.827Z,81.82
2024-04-15T23:40:43.058Z,82.14
2024-04-15T23:43:09.973Z,81.84
2024-04-15T23:45:59.146Z,82.00
2024-04-15T23:48:44.749Z,81.58
2024-04-15T23:51:38.809Z,81.41
2024-04-15T23:54:24.401Z,81.77
2024-04-15T23:57:12.959Z,81.16
2024-04-15T23:59:39.906Z,81.63
